Time;durP1;ratioP1;P1;durP2;ratioP2;P2;SDS_P1;SDS_P2;PMS_P1;PMS_P2;Temp;Humidity;BMP_temperature;BMP_pressure;BME280_temperature;BME280_humidity;BME280_pressure;Samples;Min_cycle;Max_cycle;Signal;HPM_P1;HPM_P2
2022/04/01 00:01:55;;;;;;;;;;;2.30;99.90;;;;;;5052744;28;19978;-72
2022/04/01 00:04:22;;;;;;;;;;;2.20;99.90;;;;;;5051838;28;19924;-71
2022/04/01 00:06:49;;;;;;;;;;;2.20;99.90;;;;;;5052640;28;19928;-72
2022/04/01 00:09:16;;;;;;;;;;;2.30;99.90;;;;;;5052225;28;19925;-72
2022/04/01 00:11:42;;;;;;;;;;;2.20;99.90;;;;;;5052507;28;19924;-72
2022/04/01 00:14:09;;;;;;;;;;;2.20;99.90;;;;;;5051013;28;20414;-72
2022/04/01 00:16:36;;;;;;;;;;;2.20;99.90;;;;;;5052221;28;19977;-72
2022/04/01 00:19:05;;;;;;;;;;;2.20;99.90;;;;;;5052366;28;19925;-72
2022/04/01 00:21:31;;;;;;;;;;;2.20;99.90;;;;;;5052444;28;20024;-73
2022/04/01 00:23:58;;;;;;;;;;;2.20;99.90;;;;;;5053183;28;19924;-70
2022/04/01 00:26:25;;;;;;;;;;;2.20;99.90;;;;;;5055669;28;19924;-72
2022/04/01 00:28:52;;;;;;;;;;;2.20;99.90;;;;;;5072522;28;19925;-71
2022/04/01 00:31:20;;;;;;;;;;;2.30;99.90;;;;;;5056620;28;20299;-71
2022/04/01 00:33:46;;;;;;;;;;;2.30;99.90;;;;;;5056128;28;20023;-71
2022/04/01 00:36:15;;;;;;;;;;;2.30;99.90;;;;;;5056455;28;19924;-71
2022/04/01 00:38:41;;;;;;;;;;;2.30;99.90;;;;;;5056198;28;19935;-71
2022/04/01 00:41:08;;;;;;;;;;;2.30;99.90;;;;;;5056077;28;20384;-71
2022/04/01 00:43:36;;;;;;;;;;;2.30;99.90;;;;;;5056305;28;19924;-72
2022/04/01 00:46:03;;;;;;;;;;;2.30;99.90;;;;;;5055693;28;20015;-71
2022/04/01 00:48:30;;;;;;;;;;;2.30;99.90;;;;;;5057665;28;20467;-71
2022/04/01 00:50:57;;;;;;;;;;;2.30;99.90;;;;;;5058202;28;19924;-72
2022/04/01 00:53:25;;;;;;;;;;;2.30;99.90;;;;;;5057320;28;19932;-72
2022/04/01 00:55:52;;;;;;;;;;;2.30;99.90;;;;;;5055798;28;19924;-70
2022/04/01 00:58:20;;;;;;;;;;;2.30;99.90;;;;;;5056158;28;19928;-72
2022/04/01 01:00:47;;;;;;;;;;;2.30;99.90;;;;;;5055392;28;19978;-72
2022/04/01 01:03:14;;;;;;;;;;;2.30;99.90;;;;;;5055863;28;19924;-73
2022/04/01 01:05:41;;;;;;;;;;;2.40;99.90;;;;;;5055064;28;19924;-72
2022/04/01 01:08:08;;;;;;;;;;;2.40;99.90;;;;;;5055230;28;19924;-71
2022/04/01 01:10:37;;;;;;;;;;;2.40;99.90;;;;;;5055421;28;19925;-72
2022/04/01 01:13:04;;;;;;;;;;;2.40;99.90;;;;;;5055606;28;19924;-71
2022/04/01 01:15:30;;;;;;;;;;;2.40;99.90;;;;;;5054955;28;19928;-71
2022/04/01 01:17:57;;;;;;;;;;;2.40;99.90;;;;;;5072332;28;19924;-72
2022/04/01 01:20:24;;;;;;;;;;;2.40;99.90;;;;;;5055010;28;19932;-73
2022/04/01 01:22:53;;;;;;;;;;;2.50;99.90;;;;;;5055435;28;19932;-70
2022/04/01 01:25:22;;;;;;;;;;;2.40;99.90;;;;;;5054785;28;19935;-72
2022/04/01 01:27:49;;;;;;;;;;;2.40;99.90;;;;;;5055131;28;20391;-71
2022/04/01 01:30:15;;;;;;;;;;;2.50;99.90;;;;;;5054959;28;19931;-71
2022/04/01 01:32:43;;;;;;;;;;;2.50;99.90;;;;;;5054940;28;19925;-73
2022/04/01 01:37:55;;;;;;;;;;;2.50;99.90;;;;;;5054940;28;19928;-72
2022/04/01 01:40:25;;;;;;;;;;;2.60;99.90;;;;;;5054706;28;20299;-72
2022/04/01 01:42:52;;;;;;;;;;;2.60;99.90;;;;;;5055108;28;19924;-71
2022/04/01 01:45:19;;;;;;;;;;;2.60;99.90;;;;;;5054768;28;19924;-71
2022/04/01 01:47:46;;;;;;;;;;;2.60;99.90;;;;;;5054707;28;19924;-71
2022/04/01 01:55:44;;;;;;;;;;;2.60;99.90;;;;;;5053666;28;19927;-71
2022/04/01 01:58:11;;;;;;;;;;;2.60;99.90;;;;;;5071381;28;19924;-72
2022/04/01 02:00:39;;;;;;;;;;;2.70;99.90;;;;;;5054374;28;20403;-72
2022/04/01 02:03:06;;;;;;;;;;;2.60;99.90;;;;;;5051780;28;19935;-72
2022/04/01 02:05:34;;;;;;;;;;;2.60;99.90;;;;;;5069964;28;19928;-72
2022/04/01 02:08:02;;;;;;;;;;;2.60;99.90;;;;;;5071150;28;19932;-72
2022/04/01 02:10:29;;;;;;;;;;;2.60;99.90;;;;;;5070929;28;20019;-70
2022/04/01 02:12:58;;;;;;;;;;;2.50;99.90;;;;;;5071116;28;20346;-72
2022/04/01 02:15:24;;;;;;;;;;;2.50;99.90;;;;;;5070530;28;19925;-72
2022/04/01 02:17:51;;;;;;;;;;;2.50;99.90;;;;;;5069666;28;20293;-71
2022/04/01 02:20:18;;;;;;;;;;;2.50;99.90;;;;;;5070432;28;19932;-71
2022/04/01 02:22:46;;;;;;;;;;;2.50;99.90;;;;;;5070705;28;19925;-73
2022/04/01 02:25:15;;;;;;;;;;;2.50;99.90;;;;;;5070499;28;19931;-71
2022/04/01 02:27:43;;;;;;;;;;;2.50;99.90;;;;;;5070238;28;19974;-71
2022/04/01 02:30:12;;;;;;;;;;;2.50;99.90;;;;;;5070614;28;19971;-73
2022/04/01 02:32:48;;;;;;;;;;;2.50;99.90;;;;;;5072081;28;20400;-72
2022/04/01 02:35:42;;;;;;;;;;;2.50;99.90;;;;;;5069894;28;19929;-72
2022/04/01 02:38:10;;;;;;;;;;;2.50;99.90;;;;;;5070408;28;19978;-72
2022/04/01 02:40:37;;;;;;;;;;;2.40;99.90;;;;;;5070145;28;19931;-71
2022/04/01 02:43:04;;;;;;;;;;;2.40;99.90;;;;;;5070099;28;19968;-72
2022/04/01 02:45:35;;;;;;;;;;;2.40;99.90;;;;;;5070211;28;19928;-71
2022/04/01 02:48:01;;;;;;;;;;;2.40;99.90;;;;;;5069610;28;19936;-71
2022/04/01 02:50:42;;;;;;;;;;;2.40;99.90;;;;;;5070026;28;19939;-72
2022/04/01 02:53:09;;;;;;;;;;;2.40;99.90;;;;;;5070068;28;19932;-72
2022/04/01 02:55:35;;;;;;;;;;;2.40;99.90;;;;;;5069787;28;19932;-72
2022/04/01 02:58:02;;;;;;;;;;;2.40;99.90;;;;;;5070229;28;19964;-72
2022/04/01 03:00:30;;;;;;;;;;;2.30;99.90;;;;;;5069925;28;19930;-72
2022/04/01 03:03:06;;;;;;;;;;;2.30;99.90;;;;;;5070326;28;19982;-70
2022/04/01 03:05:33;;;;;;;;;;;2.30;99.90;;;;;;5069647;28;19931;-72
2022/04/01 03:08:00;;;;;;;;;;;2.30;99.90;;;;;;5069752;28;19925;-70
2022/04/01 03:10:30;;;;;;;;;;;2.30;99.90;;;;;;5070108;28;19951;-71
2022/04/01 03:12:58;;;;;;;;;;;2.30;99.90;;;;;;5070231;28;19924;-74
2022/04/01 03:15:43;;;;;;;;;;;2.20;99.90;;;;;;5070429;28;19940;-71
2022/04/01 03:18:26;;;;;;;;;;;2.30;99.90;;;;;;5061482;28;19930;-71
2022/04/01 03:20:53;;;;;;;;;;;2.20;99.90;;;;;;5069575;28;19924;-72
2022/04/01 03:23:20;;;;;;;;;;;2.20;99.90;;;;;;5069993;28;19924;-71
2022/04/01 03:25:47;;;;;;;;;;;2.20;99.90;;;;;;5069355;28;19924;-70
2022/04/01 03:28:19;;;;;;;;;;;2.20;99.90;;;;;;5070429;28;19928;-70
2022/04/01 03:30:51;;;;;;;;;;;2.20;99.90;;;;;;5069779;28;19933;-72
2022/04/01 03:33:20;;;;;;;;;;;2.20;99.90;;;;;;5069961;28;19947;-72
2022/04/01 03:35:49;;;;;;;;;;;2.20;99.90;;;;;;5069498;28;19932;-71
2022/04/01 03:38:19;;;;;;;;;;;2.20;99.90;;;;;;5069825;28;19972;-71
2022/04/01 03:40:49;;;;;;;;;;;2.10;99.90;;;;;;5069538;28;19940;-71
2022/04/01 03:43:17;;;;;;;;;;;2.20;99.90;;;;;;5069988;28;19931;-71
2022/04/01 03:45:48;;;;;;;;;;;2.10;99.90;;;;;;5069517;28;19925;-71
2022/04/01 03:48:24;;;;;;;;;;;2.10;99.90;;;;;;5069355;28;19999;-72
2022/04/01 03:50:56;;;;;;;;;;;2.10;99.90;;;;;;5069072;28;19932;-71
2022/04/01 03:53:26;;;;;;;;;;;2.00;99.90;;;;;;5069367;28;20373;-71
2022/04/01 03:55:55;;;;;;;;;;;2.00;99.90;;;;;;5069412;28;19959;-71
2022/04/01 03:58:45;;;;;;;;;;;2.00;99.90;;;;;;5072683;28;19932;-69
2022/04/01 04:01:35;;;;;;;;;;;2.00;99.90;;;;;;5045846;28;19965;-71
2022/04/01 04:04:03;;;;;;;;;;;2.00;99.90;;;;;;5073249;28;19938;-70
2022/04/01 04:06:34;;;;;;;;;;;1.90;99.90;;;;;;5073235;28;19925;-71
2022/04/01 04:09:02;;;;;;;;;;;1.90;99.90;;;;;;5073628;28;19925;-70
2022/04/01 04:11:29;;;;;;;;;;;1.90;99.90;;;;;;5073195;28;20391;-70
2022/04/01 04:14:16;;;;;;;;;;;1.90;99.90;;;;;;5073254;28;19970;-72
2022/04/01 04:16:46;;;;;;;;;;;1.90;99.90;;;;;;5073233;28;19924;-70
2022/04/01 04:19:19;;;;;;;;;;;1.90;99.90;;;;;;5073085;28;19935;-71
2022/04/01 04:21:50;;;;;;;;;;;1.80;99.90;;;;;;5073429;28;19935;-71
2022/04/01 04:24:18;;;;;;;;;;;1.80;99.90;;;;;;5072814;28;19925;-71
2022/04/01 04:26:47;;;;;;;;;;;1.90;99.90;;;;;;5073390;28;19932;-70
2022/04/01 04:29:15;;;;;;;;;;;1.80;99.90;;;;;;5073343;28;20280;-72
2022/04/01 04:32:24;;;;;;;;;;;1.80;99.90;;;;;;5063552;28;19946;-70
2022/04/01 04:34:51;;;;;;;;;;;1.80;99.90;;;;;;5072939;28;19925;-70
2022/04/01 04:37:25;;;;;;;;;;;1.80;99.90;;;;;;5073104;28;20445;-73
2022/04/01 04:39:52;;;;;;;;;;;1.80;99.90;;;;;;5073269;28;19932;-71
2022/04/01 04:42:22;;;;;;;;;;;1.80;99.90;;;;;;5073272;28;19924;-72
2022/04/01 04:44:49;;;;;;;;;;;1.80;99.90;;;;;;5072565;28;19925;-72
2022/04/01 04:47:25;;;;;;;;;;;1.80;99.90;;;;;;5073207;28;19924;-73
2022/04/01 04:49:53;;;;;;;;;;;1.80;99.90;;;;;;5072740;28;20376;-70
2022/04/01 04:52:26;;;;;;;;;;;1.80;99.90;;;;;;5072608;28;19955;-71
2022/04/01 04:54:55;;;;;;;;;;;1.80;99.90;;;;;;5072522;28;20378;-72
2022/04/01 04:57:22;;;;;;;;;;;1.80;99.90;;;;;;5073595;28;19931;-72
2022/04/01 04:59:51;;;;;;;;;;;1.80;99.90;;;;;;5072647;28;19932;-72
2022/04/01 05:02:28;;;;;;;;;;;1.80;99.90;;;;;;5060922;28;19925;-73
2022/04/01 05:05:02;;;;;;;;;;;1.70;99.90;;;;;;5055423;28;19925;-72
2022/04/01 05:07:44;;;;;;;;;;;1.70;99.90;;;;;;5072516;28;19967;-72
2022/04/01 05:10:48;;;;;;;;;;;1.80;99.90;;;;;;5072419;28;20409;-72
2022/04/01 05:13:20;;;;;;;;;;;1.70;99.90;;;;;;5055757;28;19925;-72
2022/04/01 05:16:05;;;;;;;;;;;1.70;99.90;;;;;;5055776;28;19925;-72
2022/04/01 05:18:40;;;;;;;;;;;1.70;99.90;;;;;;5055505;28;19924;-72
2022/04/01 05:21:09;;;;;;;;;;;1.70;99.90;;;;;;5055147;28;20365;-72
2022/04/01 05:23:45;;;;;;;;;;;1.70;99.90;;;;;;5055492;28;19924;-73
2022/04/01 05:26:14;;;;;;;;;;;1.70;99.90;;;;;;5071999;28;20032;-73
2022/04/01 05:29:02;;;;;;;;;;;1.70;99.90;;;;;;5072806;28;20013;-74
2022/04/01 05:31:34;;;;;;;;;;;1.70;99.90;;;;;;5056552;28;20315;-73
2022/04/01 05:34:05;;;;;;;;;;;1.60;99.90;;;;;;5055423;28;19924;-71
2022/04/01 05:36:32;;;;;;;;;;;1.60;99.90;;;;;;5087790;28;19925;-72
2022/04/01 05:39:03;;;;;;;;;;;1.60;99.90;;;;;;5071181;28;19931;-71
2022/04/01 05:41:30;;;;;;;;;;;1.60;99.90;;;;;;5048339;28;19929;-71
2022/04/01 05:43:58;;;;;;;;;;;1.60;99.90;;;;;;5055389;28;19930;-72
2022/04/01 05:46:39;;;;;;;;;;;1.60;99.90;;;;;;5055252;28;20337;-72
2022/04/01 05:49:09;;;;;;;;;;;1.60;99.90;;;;;;5054687;28;19924;-73
2022/04/01 05:51:36;;;;;;;;;;;1.60;99.90;;;;;;5055158;28;19967;-74
2022/04/01 05:54:06;;;;;;;;;;;1.70;99.90;;;;;;5055104;28;20349;-72
2022/04/01 05:56:35;;;;;;;;;;;1.70;99.90;;;;;;5049547;28;19924;-72
2022/04/01 05:59:02;;;;;;;;;;;1.60;99.90;;;;;;5054615;28;19925;-72
2022/04/01 06:01:37;;;;;;;;;;;1.60;99.90;;;;;;5087605;28;19925;-73
2022/04/01 06:04:12;;;;;;;;;;;1.60;99.90;;;;;;5071188;28;20323;-73
2022/04/01 06:06:41;;;;;;;;;;;1.60;99.90;;;;;;5071681;28;19928;-73
2022/04/01 06:09:17;;;;;;;;;;;1.60;99.90;;;;;;5071280;28;20414;-72
2022/04/01 06:12:03;;;;;;;;;;;1.60;99.90;;;;;;5071632;28;20339;-71
2022/04/01 06:14:55;;;;;;;;;;;1.60;99.90;;;;;;5072306;28;19930;-71
2022/04/01 06:17:43;;;;;;;;;;;1.60;99.90;;;;;;5072932;28;20407;-71
2022/04/01 06:20:10;;;;;;;;;;;1.60;99.90;;;;;;5070749;28;19928;-75
2022/04/01 06:22:44;;;;;;;;;;;1.70;99.90;;;;;;5071698;28;19924;-77
2022/04/01 06:25:13;;;;;;;;;;;1.60;99.90;;;;;;5070644;28;19928;-76
2022/04/01 06:27:45;;;;;;;;;;;1.60;99.90;;;;;;5071026;28;19929;-75
2022/04/01 06:30:14;;;;;;;;;;;1.60;99.90;;;;;;5070921;28;20019;-74
2022/04/01 06:32:49;;;;;;;;;;;1.60;99.90;;;;;;5070739;28;19924;-72
2022/04/01 06:35:20;;;;;;;;;;;1.60;99.90;;;;;;5070602;28;19931;-73
2022/04/01 06:38:13;;;;;;;;;;;1.60;99.90;;;;;;5063776;28;19936;-72
2022/04/01 06:40:42;;;;;;;;;;;1.60;99.90;;;;;;5057525;28;19925;-73
2022/04/01 06:43:10;;;;;;;;;;;1.70;99.90;;;;;;5050810;28;19929;-72
2022/04/01 06:45:59;;;;;;;;;;;1.80;99.90;;;;;;5069918;28;20303;-73
2022/04/01 06:48:38;;;;;;;;;;;1.70;99.90;;;;;;5072220;28;19925;-72
2022/04/01 06:51:23;;;;;;;;;;;1.70;99.90;;;;;;5072418;28;19932;-72
2022/04/01 06:54:09;;;;;;;;;;;1.60;99.90;;;;;;5071767;28;20420;-72
2022/04/01 06:57:00;;;;;;;;;;;1.60;99.90;;;;;;5071355;28;19931;-72
2022/04/01 06:59:36;;;;;;;;;;;1.60;99.90;;;;;;5075384;28;19928;-77
2022/04/01 07:02:02;;;;;;;;;;;1.60;99.90;;;;;;5068196;28;19925;-78
2022/04/01 07:04:29;;;;;;;;;;;1.60;99.90;;;;;;5069505;28;19924;-76
2022/04/01 07:06:56;;;;;;;;;;;1.50;99.90;;;;;;5070321;28;19929;-76
2022/04/01 07:09:23;;;;;;;;;;;1.50;99.90;;;;;;5056999;28;20377;-72
2022/04/01 07:11:50;;;;;;;;;;;1.50;99.90;;;;;;5057975;28;19925;-73
2022/04/01 07:14:18;;;;;;;;;;;1.60;99.90;;;;;;5069720;28;19925;-72
2022/04/01 07:16:45;;;;;;;;;;;1.60;99.90;;;;;;5070059;28;20334;-72
2022/04/01 07:19:12;;;;;;;;;;;1.60;99.90;;;;;;5067071;28;20350;-72
2022/04/01 07:21:38;;;;;;;;;;;1.50;99.90;;;;;;5054624;28;20383;-73
2022/04/01 07:24:06;;;;;;;;;;;1.60;99.90;;;;;;5054324;28;19935;-72
2022/04/01 07:26:33;;;;;;;;;;;1.60;99.90;;;;;;5054144;28;19925;-72
2022/04/01 07:29:01;;;;;;;;;;;1.60;99.90;;;;;;5053516;28;19928;-72
2022/04/01 07:34:16;;;;;;;;;;;1.60;99.90;;;;;;5052810;28;20310;-72
2022/04/01 07:36:42;;;;;;;;;;;1.60;99.90;;;;;;5052091;28;20302;-72
2022/04/01 07:39:09;;;;;;;;;;;1.60;99.90;;;;;;5069376;28;19928;-72
2022/04/01 07:41:36;;;;;;;;;;;1.50;99.90;;;;;;5051320;28;19932;-72
2022/04/01 07:44:03;;;;;;;;;;;1.60;99.90;;;;;;5047121;28;20016;-73
2022/04/01 07:46:31;;;;;;;;;;;1.50;99.90;;;;;;5058556;28;19932;-73
2022/04/01 07:48:58;;;;;;;;;;;1.50;99.90;;;;;;5068723;28;19986;-72
2022/04/01 07:51:25;;;;;;;;;;;1.60;99.90;;;;;;5069837;28;19952;-73
2022/04/01 07:53:52;;;;;;;;;;;1.60;99.90;;;;;;5069613;28;19930;-72
2022/04/01 07:56:19;;;;;;;;;;;1.60;99.90;;;;;;5069784;28;19928;-73
2022/04/01 07:58:45;;;;;;;;;;;1.50;99.90;;;;;;5069416;28;19928;-72
2022/04/01 08:01:12;;;;;;;;;;;1.60;99.90;;;;;;5057316;28;19928;-73
2022/04/01 08:03:44;;;;;;;;;;;1.60;99.90;;;;;;5069510;28;19978;-73
2022/04/01 08:06:11;;;;;;;;;;;1.60;99.90;;;;;;5069631;28;19924;-72
2022/04/01 08:08:38;;;;;;;;;;;1.60;99.90;;;;;;5069710;28;19924;-73
2022/04/01 08:11:06;;;;;;;;;;;1.60;99.90;;;;;;5065716;28;19925;-73
2022/04/01 08:13:33;;;;;;;;;;;1.70;99.90;;;;;;5053268;28;19931;-74
2022/04/01 08:15:59;;;;;;;;;;;1.70;99.90;;;;;;5056448;28;19925;-74
2022/04/01 08:18:26;;;;;;;;;;;1.80;99.90;;;;;;5060913;28;19928;-73
2022/04/01 08:20:55;;;;;;;;;;;1.80;99.90;;;;;;5069452;28;19924;-72
2022/04/01 08:23:22;;;;;;;;;;;1.80;99.90;;;;;;5069463;28;19928;-73
2022/04/01 08:25:49;;;;;;;;;;;1.80;99.90;;;;;;5069330;28;19998;-74
2022/04/01 08:28:16;;;;;;;;;;;1.80;99.90;;;;;;5069492;28;19936;-73
2022/04/01 08:30:43;;;;;;;;;;;1.80;99.90;;;;;;5062094;28;19929;-73
2022/04/01 08:33:10;;;;;;;;;;;1.80;99.90;;;;;;5048142;28;20397;-74
2022/04/01 08:35:37;;;;;;;;;;;1.80;99.90;;;;;;5052817;28;19952;-75
2022/04/01 08:38:05;;;;;;;;;;;1.70;99.90;;;;;;5051103;28;20277;-73
2022/04/01 08:40:32;;;;;;;;;;;1.70;99.90;;;;;;5053940;28;19954;-74
2022/04/01 08:42:59;;;;;;;;;;;1.70;99.90;;;;;;5052972;28;20386;-73
2022/04/01 08:45:26;;;;;;;;;;;1.70;99.90;;;;;;5054309;28;19928;-73
2022/04/01 08:47:53;;;;;;;;;;;1.70;99.90;;;;;;5056918;28;19928;-74
2022/04/01 08:50:20;;;;;;;;;;;1.60;99.90;;;;;;5057892;28;19932;-73
2022/04/01 08:52:46;;;;;;;;;;;1.60;99.90;;;;;;5073809;28;19928;-73
2022/04/01 08:55:15;;;;;;;;;;;1.60;99.90;;;;;;5075253;28;19940;-73
2022/04/01 08:57:43;;;;;;;;;;;1.60;99.90;;;;;;5074638;28;19925;-73
2022/04/01 09:00:29;;;;;;;;;;;1.60;99.90;;;;;;5074017;28;19924;-72
2022/04/01 09:02:59;;;;;;;;;;;1.60;99.90;;;;;;5091649;28;19928;-73
2022/04/01 09:05:25;;;;;;;;;;;1.60;99.90;;;;;;5073728;28;19974;-73
2022/04/01 09:07:59;;;;;;;;;;;1.60;99.90;;;;;;5074086;28;19974;-73
2022/04/01 09:10:27;;;;;;;;;;;1.60;99.90;;;;;;5073563;28;19931;-73
2022/04/01 09:12:54;;;;;;;;;;;1.60;99.90;;;;;;5073390;28;19924;-73
2022/04/01 09:15:21;;;;;;;;;;;1.60;99.90;;;;;;5073449;28;20384;-73
2022/04/01 09:17:48;;;;;;;;;;;1.60;99.90;;;;;;5074374;28;19925;-73
2022/04/01 09:20:16;;;;;;;;;;;1.60;99.90;;;;;;5073873;28;19986;-73
2022/04/01 09:22:43;;;;;;;;;;;1.60;99.90;;;;;;5073740;28;19931;-73
2022/04/01 09:25:12;;;;;;;;;;;1.60;99.90;;;;;;5047021;28;19978;-73
2022/04/01 09:27:42;;;;;;;;;;;1.60;99.90;;;;;;5047011;28;19925;-72
2022/04/01 09:30:10;;;;;;;;;;;1.60;99.90;;;;;;5049459;28;19932;-72
2022/04/01 09:32:37;;;;;;;;;;;1.70;99.90;;;;;;5045285;28;19935;-73
2022/04/01 09:35:04;;;;;;;;;;;1.60;99.90;;;;;;5053464;28;19960;-74
2022/04/01 09:37:36;;;;;;;;;;;1.60;99.90;;;;;;5072055;28;19932;-73
2022/04/01 09:40:03;;;;;;;;;;;1.60;99.90;;;;;;5057625;28;20474;-73
2022/04/01 09:42:30;;;;;;;;;;;1.70;99.90;;;;;;5063653;28;19929;-73
2022/04/01 09:45:00;;;;;;;;;;;1.60;99.90;;;;;;5055004;28;19928;-74
2022/04/01 09:47:27;;;;;;;;;;;1.60;99.90;;;;;;5088858;28;19932;-73
2022/04/01 09:49:54;;;;;;;;;;;1.60;99.90;;;;;;5054934;28;19924;-73
2022/04/01 09:52:22;;;;;;;;;;;1.60;99.90;;;;;;5055171;28;19924;-74
2022/04/01 09:54:50;;;;;;;;;;;1.60;99.90;;;;;;5054853;28;19925;-74
2022/04/01 09:57:18;;;;;;;;;;;1.60;99.90;;;;;;5054893;28;19940;-74
2022/04/01 09:59:45;;;;;;;;;;;1.60;99.90;;;;;;5054834;28;19968;-74
2022/04/01 10:02:14;;;;;;;;;;;1.60;99.90;;;;;;5055095;28;19932;-72
2022/04/01 10:04:41;;;;;;;;;;;1.70;99.90;;;;;;5054643;28;20459;-74
2022/04/01 10:07:08;;;;;;;;;;;1.70;99.90;;;;;;5054718;28;19924;-74
2022/04/01 10:09:35;;;;;;;;;;;1.60;99.90;;;;;;5054645;28;19928;-74
2022/04/01 10:12:03;;;;;;;;;;;1.70;99.90;;;;;;5054599;28;19924;-74
2022/04/01 10:14:31;;;;;;;;;;;1.70;99.90;;;;;;5053587;28;19924;-74
2022/04/01 10:17:01;;;;;;;;;;;1.70;99.90;;;;;;5055837;28;19924;-74
2022/04/01 10:19:30;;;;;;;;;;;1.80;99.90;;;;;;5070559;28;19925;-74
2022/04/01 10:21:57;;;;;;;;;;;1.80;99.90;;;;;;5071417;28;19932;-72
2022/04/01 10:24:35;;;;;;;;;;;1.80;99.90;;;;;;5070991;28;19929;-73
2022/04/01 10:27:11;;;;;;;;;;;1.80;99.90;;;;;;5071024;28;19925;-74
2022/04/01 10:29:38;;;;;;;;;;;1.80;99.90;;;;;;5070746;28;19928;-74
2022/04/01 10:32:22;;;;;;;;;;;1.80;99.90;;;;;;5070775;28;20380;-74
2022/04/01 10:34:53;;;;;;;;;;;1.80;99.90;;;;;;5059209;28;19925;-74
2022/04/01 10:37:21;;;;;;;;;;;1.80;99.90;;;;;;5061703;28;19925;-74
2022/04/01 10:39:48;;;;;;;;;;;1.90;99.90;;;;;;5059968;28;20303;-74
2022/04/01 10:42:16;;;;;;;;;;;2.00;99.90;;;;;;5064111;28;19978;-74
2022/04/01 10:44:47;;;;;;;;;;;2.10;99.90;;;;;;5070311;28;19932;-74
2022/04/01 10:47:14;;;;;;;;;;;2.10;99.90;;;;;;5070675;28;20307;-72
2022/04/01 10:52:29;;;;;;;;;;;2.10;99.90;;;;;;5070702;28;19920;-73
2022/04/01 10:55:16;;;;;;;;;;;2.10;99.90;;;;;;5058532;28;19931;-74
2022/04/01 10:57:45;;;;;;;;;;;2.10;99.90;;;;;;5058047;28;19987;-74
2022/04/01 11:00:14;;;;;;;;;;;2.10;99.90;;;;;;5070236;28;19924;-74
2022/04/01 11:02:41;;;;;;;;;;;2.10;99.90;;;;;;5070577;28;19925;-73
2022/04/01 11:05:22;;;;;;;;;;;2.10;99.90;;;;;;5069926;28;19963;-73
2022/04/01 11:08:10;;;;;;;;;;;2.20;99.90;;;;;;5070077;28;19924;-74
2022/04/01 11:10:37;;;;;;;;;;;2.20;99.90;;;;;;5069379;28;20330;-72
2022/04/01 11:13:04;;;;;;;;;;;2.30;99.90;;;;;;5053486;28;19993;-73
2022/04/01 11:15:31;;;;;;;;;;;2.30;99.90;;;;;;5053528;28;19931;-74
2022/04/01 11:18:04;;;;;;;;;;;2.30;99.90;;;;;;5053505;28;19929;-74
2022/04/01 11:20:32;;;;;;;;;;;2.30;99.90;;;;;;5053067;28;19928;-73
2022/04/01 11:23:03;;;;;;;;;;;2.20;99.90;;;;;;5053735;28;19925;-74
2022/04/01 11:25:50;;;;;;;;;;;2.20;99.90;;;;;;5053163;28;20008;-74
2022/04/01 11:28:19;;;;;;;;;;;2.20;99.90;;;;;;5052664;28;21530;-75
2022/04/01 11:31:03;;;;;;;;;;;2.20;99.90;;;;;;5053242;28;19928;-74
2022/04/01 11:33:29;;;;;;;;;;;2.30;99.90;;;;;;5069997;28;19924;-74
2022/04/01 11:35:57;;;;;;;;;;;2.40;99.90;;;;;;5053358;28;19924;-74
2022/04/01 11:38:26;;;;;;;;;;;2.30;99.90;;;;;;5053743;28;19925;-73
2022/04/01 11:40:53;;;;;;;;;;;2.30;99.90;;;;;;5052742;28;19924;-74
2022/04/01 11:43:21;;;;;;;;;;;2.40;99.90;;;;;;5053690;28;19928;-72
2022/04/01 11:45:48;;;;;;;;;;;2.40;99.90;;;;;;5052992;28;20046;-74
2022/04/01 11:48:16;;;;;;;;;;;2.40;99.90;;;;;;5050914;28;19925;-74
2022/04/01 11:50:44;;;;;;;;;;;2.40;99.90;;;;;;5053923;28;19932;-74
2022/04/01 11:53:18;;;;;;;;;;;2.40;99.90;;;;;;5053099;28;20019;-74
2022/04/01 11:55:47;;;;;;;;;;;2.40;99.90;;;;;;5052777;28;19977;-74
2022/04/01 11:58:14;;;;;;;;;;;2.30;99.90;;;;;;5053352;28;19924;-74
2022/04/01 12:00:40;;;;;;;;;;;2.30;99.90;;;;;;5052801;28;20346;-74
2022/04/01 12:03:11;;;;;;;;;;;2.30;99.90;;;;;;5053035;28;19924;-75
2022/04/01 12:05:39;;;;;;;;;;;2.20;99.90;;;;;;5051774;28;19929;-74
2022/04/01 12:10:53;;;;;;;;;;;2.20;99.90;;;;;;5067436;28;20311;-73
2022/04/01 12:13:21;;;;;;;;;;;2.10;99.90;;;;;;5070118;28;19925;-74
2022/04/01 12:15:48;;;;;;;;;;;2.10;99.90;;;;;;5052623;28;20388;-74
2022/04/01 12:18:16;;;;;;;;;;;2.20;99.90;;;;;;5053141;28;19977;-74
2022/04/01 12:20:43;;;;;;;;;;;2.10;99.90;;;;;;5056572;28;19932;-74
2022/04/01 12:23:10;;;;;;;;;;;2.10;99.90;;;;;;5057258;28;19924;-74
2022/04/01 12:25:38;;;;;;;;;;;2.10;99.90;;;;;;5056542;28;19925;-74
2022/04/01 12:28:07;;;;;;;;;;;2.10;99.90;;;;;;5057037;28;19931;-72
2022/04/01 12:30:35;;;;;;;;;;;2.20;99.90;;;;;;5073187;28;20376;-74
2022/04/01 12:33:03;;;;;;;;;;;2.10;99.90;;;;;;5056579;28;19928;-74
2022/04/01 12:35:30;;;;;;;;;;;2.10;99.90;;;;;;5072763;28;19924;-74
2022/04/01 12:38:07;;;;;;;;;;;2.10;99.90;;;;;;5073506;28;20296;-72
2022/04/01 12:40:35;;;;;;;;;;;2.10;99.90;;;;;;5063855;28;19935;-72
2022/04/01 12:43:02;;;;;;;;;;;2.10;99.90;;;;;;5058607;28;19924;-73
2022/04/01 12:45:30;;;;;;;;;;;2.10;99.90;;;;;;5051828;28;19936;-74
2022/04/01 12:47:57;;;;;;;;;;;2.10;99.90;;;;;;5045978;28;19925;-74
2022/04/01 12:50:33;;;;;;;;;;;2.00;99.90;;;;;;5051137;28;19932;-74
2022/04/01 12:53:09;;;;;;;;;;;2.00;99.90;;;;;;5064175;28;19925;-74
2022/04/01 12:55:36;;;;;;;;;;;2.00;99.90;;;;;;5072509;28;19924;-74
2022/04/01 12:58:08;;;;;;;;;;;2.00;99.90;;;;;;5073356;28;20422;-74
2022/04/01 13:00:36;;;;;;;;;;;2.00;99.90;;;;;;5072279;28;19931;-74
2022/04/01 13:03:03;;;;;;;;;;;2.00;99.90;;;;;;5072606;28;19925;-74
2022/04/01 13:05:30;;;;;;;;;;;2.10;99.90;;;;;;5072162;28;19974;-74
2022/04/01 13:07:57;;;;;;;;;;;2.00;99.90;;;;;;5056249;28;19924;-73
2022/04/01 13:10:24;;;;;;;;;;;2.00;99.90;;;;;;5055725;28;19932;-74
2022/04/01 13:12:52;;;;;;;;;;;2.00;99.90;;;;;;5056007;28;19924;-73
2022/04/01 13:15:20;;;;;;;;;;;2.00;99.90;;;;;;5056210;28;19928;-74
2022/04/01 13:17:50;;;;;;;;;;;2.00;99.90;;;;;;5089780;28;19964;-74
2022/04/01 13:20:20;;;;;;;;;;;2.10;99.90;;;;;;5089274;28;19932;-74
2022/04/01 13:22:47;;;;;;;;;;;2.20;99.90;;;;;;5055336;28;19924;-74
2022/04/01 13:25:15;;;;;;;;;;;2.10;99.90;;;;;;5088966;28;19924;-74
2022/04/01 13:27:42;;;;;;;;;;;2.10;99.90;;;;;;5055801;28;19925;-73
2022/04/01 13:30:10;;;;;;;;;;;2.20;99.90;;;;;;5076255;28;20022;-74
2022/04/01 13:32:37;;;;;;;;;;;2.10;99.90;;;;;;5055030;28;19928;-73
2022/04/01 13:35:07;;;;;;;;;;;2.10;99.90;;;;;;5055506;28;19924;-73
2022/04/01 13:37:34;;;;;;;;;;;2.10;99.90;;;;;;5055868;28;20380;-74
2022/04/01 13:40:01;;;;;;;;;;;2.10;99.90;;;;;;5051273;28;19963;-73
2022/04/01 13:42:28;;;;;;;;;;;2.20;99.90;;;;;;5055092;28;19931;-74
2022/04/01 13:44:56;;;;;;;;;;;2.20;99.90;;;;;;5055971;28;19929;-73
2022/04/01 13:47:23;;;;;;;;;;;2.20;99.90;;;;;;5054995;28;19978;-72
2022/04/01 13:49:51;;;;;;;;;;;2.20;99.90;;;;;;5054450;28;19931;-72
2022/04/01 13:52:20;;;;;;;;;;;2.20;99.90;;;;;;5060367;28;19926;-72
2022/04/01 13:54:47;;;;;;;;;;;2.20;99.90;;;;;;5050111;28;20292;-73
2022/04/01 13:57:14;;;;;;;;;;;2.30;99.90;;;;;;5066184;28;20382;-72
2022/04/01 13:59:42;;;;;;;;;;;2.20;99.90;;;;;;5055210;28;20314;-73
2022/04/01 14:02:09;;;;;;;;;;;2.20;99.90;;;;;;5091295;28;19924;-72
2022/04/01 14:04:36;;;;;;;;;;;2.20;99.90;;;;;;5055862;28;19924;-72
2022/04/01 14:07:07;;;;;;;;;;;2.20;99.90;;;;;;5088585;28;19925;-72
2022/04/01 14:09:37;;;;;;;;;;;2.30;99.90;;;;;;5054094;28;19924;-73
2022/04/01 14:12:04;;;;;;;;;;;2.30;99.90;;;;;;5076163;28;19925;-72
2022/04/01 14:14:31;;;;;;;;;;;2.30;99.90;;;;;;5070950;28;20441;-71
2022/04/01 14:16:57;;;;;;;;;;;2.20;99.90;;;;;;5054171;28;19924;-73
2022/04/01 14:19:24;;;;;;;;;;;2.20;99.90;;;;;;5054984;28;19924;-73
2022/04/01 14:21:51;;;;;;;;;;;2.10;99.90;;;;;;5071327;28;19931;-73
2022/04/01 14:24:18;;;;;;;;;;;2.00;99.90;;;;;;5057925;28;19925;-73
2022/04/01 14:26:46;;;;;;;;;;;2.00;99.90;;;;;;5054023;28;19925;-73
2022/04/01 14:32:01;;;;;;;;;;;2.10;99.90;;;;;;5055557;28;20375;-73
2022/04/01 14:34:28;;;;;;;;;;;2.10;99.90;;;;;;5053197;28;19955;-73
2022/04/01 14:36:56;;;;;;;;;;;2.10;99.90;;;;;;5052704;28;19928;-73
2022/04/01 14:39:22;;;;;;;;;;;2.10;99.90;;;;;;5052405;28;19978;-73
2022/04/01 14:41:50;;;;;;;;;;;2.00;99.90;;;;;;5053501;28;19925;-73
2022/04/01 14:44:18;;;;;;;;;;;2.00;99.90;;;;;;5052634;28;20379;-73
2022/04/01 14:46:45;;;;;;;;;;;2.00;99.90;;;;;;5053534;28;19925;-73
2022/04/01 14:49:12;;;;;;;;;;;2.10;99.90;;;;;;5061223;28;19924;-73
2022/04/01 14:51:39;;;;;;;;;;;2.10;99.90;;;;;;5048539;28;19943;-72
2022/04/01 14:54:05;;;;;;;;;;;2.10;99.90;;;;;;5065952;28;19936;-74
2022/04/01 14:56:32;;;;;;;;;;;2.10;99.90;;;;;;5052936;28;19924;-77
2022/04/01 14:59:01;;;;;;;;;;;2.10;99.90;;;;;;5052233;28;19924;-72
2022/04/01 15:01:27;;;;;;;;;;;2.10;99.90;;;;;;5044983;28;20351;-73
2022/04/01 15:03:54;;;;;;;;;;;2.20;99.90;;;;;;5053775;28;19932;-72
2022/04/01 15:06:22;;;;;;;;;;;2.20;99.90;;;;;;5052679;28;19985;-72